Time;durP1;ratioP1;P1;durP2;ratioP2;P2;SDS_P1;SDS_P2;PMS_P1;PMS_P2;Temp;Humidity;BMP_temperature;BMP_pressure;BME280_temperature;BME280_humidity;BME280_pressure;Samples;Min_cycle;Max_cycle;Signal;HPM_P1;HPM_P2
2022/04/27 00:01:52;;;;;;;10.70;4.78;;;;;;;11.04;67.90;98986.77;1788669;80;21011;-84
2022/04/27 00:04:19;;;;;;;12.53;5.55;;;;;;;11.06;67.12;98988.88;1754264;80;21076;-83
2022/04/27 00:06:47;;;;;;;12.90;5.70;;;;;;;11.06;68.33;98982.37;1747892;82;21018;-83
2022/04/27 00:09:14;;;;;;;14.20;5.90;;;;;;;11.09;69.10;98987.92;1747836;82;21392;-84
2022/04/27 00:11:41;;;;;;;12.68;6.25;;;;;;;11.13;69.10;98984.33;1749827;80;20978;-84
2022/04/27 00:14:07;;;;;;;14.80;6.15;;;;;;;11.18;68.96;98983.77;1758006;82;21307;-84
2022/04/27 00:16:34;;;;;;;14.75;6.25;;;;;;;11.22;68.98;98976.69;1757972;82;21026;-83
2022/04/27 00:19:01;;;;;;;22.48;7.37;;;;;;;11.27;69.37;98981.33;1746289;82;20976;-84
2022/04/27 00:21:28;;;;;;;18.23;8.45;;;;;;;11.29;68.24;98980.83;1727736;83;21003;-84
2022/04/27 00:23:54;;;;;;;21.90;8.90;;;;;;;11.29;68.33;98989.48;1736216;82;21034;-85
2022/04/27 00:26:21;;;;;;;17.27;8.68;;;;;;;11.27;69.21;98987.83;1757447;82;20992;-84
2022/04/27 00:28:48;;;;;;;18.17;7.97;;;;;;;11.24;69.66;98984.00;1752422;81;21072;-84
2022/04/27 00:31:14;;;;;;;16.35;8.25;;;;;;;11.21;69.19;98990.16;1752017;81;21009;-84
2022/04/27 00:33:41;;;;;;;21.30;7.62;;;;;;;11.20;68.98;98987.17;1746983;79;21079;-89
2022/04/27 00:36:07;;;;;;;17.25;7.62;;;;;;;11.20;68.15;98984.99;1729334;83;21499;-89
2022/04/27 00:38:34;;;;;;;16.37;7.65;;;;;;;11.17;69.89;98988.55;1722619;82;20998;-88
2022/04/27 00:41:01;;;;;;;21.42;7.83;;;;;;;11.17;69.90;98990.30;1721844;83;21547;-85
2022/04/27 00:43:40;;;;;;;19.80;8.63;;;;;;;11.15;68.03;98989.05;1721769;83;21022;-83
2022/04/27 00:46:09;;;;;;;18.55;8.35;;;;;;;11.11;69.24;98987.42;1724937;83;21787;-84
2022/04/27 00:48:39;;;;;;;16.93;7.47;;;;;;;11.06;70.47;98988.00;1725342;83;21039;-83
2022/04/27 00:51:06;;;;;;;13.90;6.60;;;;;;;11.00;69.85;98986.87;1728717;83;21006;-84
2022/04/27 00:53:33;;;;;;;17.85;7.30;;;;;;;10.93;69.50;98987.05;1726567;83;21031;-84
2022/04/27 00:56:00;;;;;;;15.03;6.78;;;;;;;10.88;70.22;98994.15;1715123;83;21001;-84
2022/04/27 00:58:28;;;;;;;14.30;6.55;;;;;;;10.84;71.64;98994.25;1722384;83;20948;-84
2022/04/27 01:00:55;;;;;;;15.63;7.22;;;;;;;10.79;70.88;98990.95;1729860;83;20972;-84
2022/04/27 01:03:23;;;;;;;16.93;6.67;;;;;;;10.72;70.57;98993.72;1723833;83;20998;-84
2022/04/27 01:05:51;;;;;;;13.93;6.33;;;;;;;10.64;68.73;98996.95;1709715;83;21182;-84
2022/04/27 01:08:22;;;;;;;17.62;6.22;;;;;;;10.58;69.47;98990.61;1719785;83;21023;-85
2022/04/27 01:10:50;;;;;;;12.75;6.80;;;;;;;10.32;67.57;98955.77;1728541;83;21004;-84
2022/04/27 01:13:17;;;;;;;15.40;7.25;;;;;;;10.49;69.48;98991.72;1720471;83;21065;-83
2022/04/27 01:15:46;;;;;;;12.85;6.47;;;;;;;10.49;69.83;98996.08;1731110;83;21113;-84
2022/04/27 01:18:12;;;;;;;14.78;6.67;;;;;;;10.45;69.83;98991.40;1728483;83;21064;-83
2022/04/27 01:20:47;;;;;;;15.40;6.65;;;;;;;10.44;70.43;98992.28;1726080;83;21078;-83
2022/04/27 01:23:15;;;;;;;15.10;6.87;;;;;;;10.41;70.09;98987.63;1727030;83;21055;-84
2022/04/27 01:26:01;;;;;;;19.60;6.17;;;;;;;10.36;71.30;98983.83;1729985;83;21084;-84
2022/04/27 01:28:31;;;;;;;16.97;6.22;;;;;;;10.36;71.52;98987.73;1711663;83;20997;-84
2022/04/27 01:31:02;;;;;;;17.20;6.62;;;;;;;10.32;72.11;98988.25;1703403;84;21044;-84
2022/04/27 01:33:30;;;;;;;17.70;6.70;;;;;;;10.27;70.99;98993.99;1713816;83;21081;-84
2022/04/27 01:36:00;;;;;;;13.38;6.83;;;;;;;10.14;71.69;98994.73;1708438;83;21070;-83
2022/04/27 01:38:29;;;;;;;15.13;7.22;;;;;;;10.06;73.00;98992.77;1677011;86;21039;-85
2022/04/27 01:40:56;;;;;;;17.12;7.17;;;;;;;10.00;71.47;98996.82;1679377;85;21027;-83
2022/04/27 01:43:24;;;;;;;13.78;6.80;;;;;;;9.94;72.09;98995.67;1718195;83;21041;-83
2022/04/27 01:45:52;;;;;;;13.78;6.78;;;;;;;9.89;72.97;98989.30;1715045;84;21042;-84
2022/04/27 01:48:19;;;;;;;12.82;6.30;;;;;;;9.82;73.15;98992.08;1714833;84;21091;-84
2022/04/27 01:50:46;;;;;;;19.90;7.37;;;;;;;9.77;73.44;98989.59;1720679;83;21038;-84
2022/04/27 01:55:59;;;;;;;15.13;6.42;;;;;;;9.71;74.67;98986.70;1677082;85;21026;-83
2022/04/27 01:58:26;;;;;;;15.80;7.12;;;;;;;9.67;74.42;98986.78;1674364;85;21049;-84
2022/04/27 02:00:53;;;;;;;19.50;6.92;;;;;;;9.66;72.55;98987.23;1715018;84;20972;-83
2022/04/27 02:03:21;;;;;;;13.80;6.45;;;;;;;9.64;71.69;98984.27;1714786;84;21060;-83
2022/04/27 02:05:49;;;;;;;13.55;6.10;;;;;;;9.62;72.48;98982.16;1714758;84;21036;-83
2022/04/27 02:08:16;;;;;;;19.02;7.47;;;;;;;9.63;72.77;98984.73;1714683;84;21492;-83
2022/04/27 02:10:43;;;;;;;15.78;7.70;;;;;;;9.64;72.51;98988.17;1715945;83;21555;-83
2022/04/27 02:13:11;;;;;;;15.55;7.37;;;;;;;9.64;73.46;98985.13;1714731;84;21011;-83
2022/04/27 02:15:39;;;;;;;19.07;7.20;;;;;;;9.66;74.89;98983.34;1712256;84;20987;-83
2022/04/27 02:18:08;;;;;;;14.80;6.80;;;;;;;9.69;75.48;98986.33;1702901;84;21042;-83
2022/04/27 02:20:35;;;;;;;20.12;7.08;;;;;;;9.71;74.89;98993.19;1708387;83;21007;-84
2022/04/27 02:23:02;;;;;;;17.37;6.55;;;;;;;9.73;75.17;98990.11;1708348;84;21018;-83
2022/04/27 02:25:30;;;;;;;14.85;6.75;;;;;;;9.76;75.29;98987.42;1711951;83;21011;-82
2022/04/27 02:27:57;;;;;;;13.55;6.53;;;;;;;9.79;74.75;98983.05;1723037;83;20990;-84
2022/04/27 02:30:24;;;;;;;11.25;5.45;;;;;;;9.78;75.10;98982.66;1722789;83;21029;-84
2022/04/27 02:32:51;;;;;;;15.85;5.90;;;;;;;9.75;74.95;98988.33;1709980;83;21029;-83
2022/04/27 02:35:19;;;;;;;9.28;4.70;;;;;;;9.71;75.35;98994.48;1681585;84;21060;-83
2022/04/27 02:37:47;;;;;;;11.05;4.83;;;;;;;9.67;74.24;98986.36;1672278;84;21026;-83
2022/04/27 02:40:14;;;;;;;11.48;5.40;;;;;;;9.62;75.60;98990.80;1700982;84;21030;-84
2022/04/27 02:42:41;;;;;;;13.15;5.20;;;;;;;9.57;75.31;98990.06;1701146;84;21035;-83
2022/04/27 02:45:08;;;;;;;11.22;5.00;;;;;;;9.54;75.24;98990.12;1679116;84;21053;-83
2022/04/27 02:47:36;;;;;;;10.63;5.33;;;;;;;9.47;74.63;98989.41;1701042;84;21055;-83
2022/04/27 02:52:50;;;;;;;10.98;4.75;;;;;;;9.32;75.85;98997.07;1676675;85;21043;-83
2022/04/27 02:55:18;;;;;;;8.88;4.92;;;;;;;9.21;75.78;99001.66;1676587;85;21123;-80
2022/04/27 02:57:46;;;;;;;14.90;5.08;;;;;;;9.11;76.80;99000.11;1685016;84;21049;-83
2022/04/27 03:00:13;;;;;;;12.50;5.08;;;;;;;9.04;74.76;99006.33;1706608;83;21042;-82
2022/04/27 03:02:40;;;;;;;18.15;5.47;;;;;;;8.97;75.21;99015.95;1694757;84;21070;-83
2022/04/27 03:05:08;;;;;;;17.55;5.72;;;;;;;8.91;76.71;99015.66;1706598;83;21046;-83
2022/04/27 03:07:35;;;;;;;17.07;5.15;;;;;;;8.85;76.32;99013.16;1706333;84;21034;-83
2022/04/27 03:10:03;;;;;;;17.30;5.70;;;;;;;8.81;75.90;99014.55;1701215;84;21018;-84
2022/04/27 03:12:31;;;;;;;18.00;5.70;;;;;;;8.75;76.79;99014.22;1701598;84;21058;-84
2022/04/27 03:14:58;;;;;;;8.45;4.75;;;;;;;8.72;76.81;99018.18;1706245;84;21063;-84
2022/04/27 03:17:25;;;;;;;13.93;4.90;;;;;;;8.68;77.27;99016.08;1707426;83;20988;-84
2022/04/27 03:19:52;;;;;;;8.73;4.30;;;;;;;8.65;75.10;99017.42;1707330;83;20981;-83
2022/04/27 03:22:19;;;;;;;18.00;5.28;;;;;;;8.63;76.08;99024.82;1707409;83;21063;-83
2022/04/27 03:24:45;;;;;;;13.62;4.85;;;;;;;8.60;74.83;99014.53;1707407;84;21047;-84
2022/04/27 03:27:14;;;;;;;14.30;5.72;;;;;;;8.60;76.02;99013.23;1701822;83;21064;-83
2022/04/27 03:29:41;;;;;;;10.55;5.05;;;;;;;8.63;75.94;99017.05;1713758;83;20999;-83
2022/04/27 03:32:11;;;;;;;14.43;5.62;;;;;;;8.65;75.02;99025.20;1707722;83;20995;-84
2022/04/27 03:34:39;;;;;;;11.93;4.80;;;;;;;8.66;76.11;99028.22;1704986;81;21091;-84
2022/04/27 03:37:07;;;;;;;12.88;5.78;;;;;;;8.68;76.84;99038.56;1719172;84;21009;-84
2022/04/27 03:39:35;;;;;;;12.80;5.60;;;;;;;8.71;76.50;99043.67;1721609;83;21000;-83
2022/04/27 03:42:03;;;;;;;16.25;5.80;;;;;;;8.77;76.91;99048.73;1723964;80;20972;-84
2022/04/27 03:44:31;;;;;;;23.12;6.15;;;;;;;8.83;78.13;99046.48;1701589;83;21027;-84
2022/04/27 03:46:58;;;;;;;16.85;6.22;;;;;;;8.84;76.60;99046.45;1723989;83;21099;-85
2022/04/27 03:49:27;;;;;;;19.85;6.50;;;;;;;8.87;76.64;99052.02;1694844;85;21076;-83
2022/04/27 03:51:53;;;;;;;23.75;7.42;;;;;;;8.91;76.61;99060.15;1695359;85;20992;-85
2022/04/27 03:54:20;;;;;;;22.20;8.60;;;;;;;8.93;76.42;99056.66;1714592;84;21084;-84
2022/04/27 03:56:47;;;;;;;30.75;10.20;;;;;;;8.98;76.68;99062.20;1715967;82;21012;-84
2022/04/27 03:59:15;;;;;;;25.05;8.30;;;;;;;8.95;76.55;99063.97;1634820;86;21062;-84
2022/04/27 04:01:42;;;;;;;15.75;7.05;;;;;;;8.93;75.99;99073.94;1724090;83;20952;-83
2022/04/27 04:04:09;;;;;;;15.55;7.30;;;;;;;8.91;76.67;99076.59;1724034;80;21040;-83
2022/04/27 04:06:39;;;;;;;13.62;6.92;;;;;;;8.91;75.56;99080.89;1724195;83;20983;-85
2022/04/27 04:09:06;;;;;;;14.20;6.78;;;;;;;8.91;77.59;99083.48;1701690;83;21055;-84
2022/04/27 04:11:32;;;;;;;14.55;6.40;;;;;;;8.91;78.02;99088.25;1724037;83;21019;-84
2022/04/27 04:14:07;;;;;;;16.77;6.50;;;;;;;8.92;76.22;99089.09;1708060;83;21047;-84
2022/04/27 04:16:38;;;;;;;20.20;8.23;;;;;;;8.93;75.74;99090.80;1713739;83;21025;-84
2022/04/27 04:19:15;;;;;;;22.80;9.88;;;;;;;8.91;76.89;99096.03;1722043;83;20996;-84
2022/04/27 04:22:01;;;;;;;15.88;6.92;;;;;;;8.88;77.05;99101.25;1724097;83;21007;-83
2022/04/27 04:24:29;;;;;;;13.45;6.28;;;;;;;8.87;77.24;99099.56;1722601;83;21040;-83
2022/04/27 04:29:42;;;;;;;14.00;5.70;;;;;;;8.90;77.44;99102.53;1724106;83;21028;-84
2022/04/27 04:32:08;;;;;;;10.72;5.42;;;;;;;8.93;77.33;99109.82;1701584;83;21035;-84
2022/04/27 04:34:52;;;;;;;;;;;;;;;8.94;78.51;99117.99;1681600;83;21006;-84
2022/04/27 04:37:19;;;;;;;9.78;5.17;;;;;;;9.03;79.21;99114.81;1714000;83;20125;-89
2022/04/27 04:39:49;;;;;;;12.30;5.17;;;;;;;9.08;77.89;99118.19;1719682;83;21074;-87
2022/04/27 04:42:14;;;;;;;12.35;4.92;;;;;;;9.14;76.99;99121.97;1699094;83;21063;-84
2022/04/27 04:44:42;;;;;;;22.05;11.30;;;;;;;9.21;78.32;99122.27;1723709;83;21057;-83
2022/04/27 04:47:17;;;;;;;33.78;12.18;;;;;;;9.32;77.14;99121.60;1716215;83;21016;-83
2022/04/27 04:49:46;;;;;;;12.13;6.47;;;;;;;9.42;78.56;99127.47;1678424;84;21077;-84
2022/04/27 04:52:14;;;;;;;13.93;6.25;;;;;;;9.55;77.98;99134.58;1712123;83;21083;-83
2022/04/27 04:54:45;;;;;;;10.03;5.40;;;;;;;9.68;77.99;99119.59;1721021;83;21071;-84
2022/04/27 04:57:14;;;;;;;11.60;5.83;;;;;;;9.77;78.68;99123.31;1718893;83;21044;-84
2022/04/27 04:59:42;;;;;;;15.32;6.95;;;;;;;9.89;78.33;99123.48;1720551;83;21048;-83
2022/04/27 05:02:23;;;;;;;12.65;6.95;;;;;;;10.00;77.96;99129.73;1696396;84;21024;-84
2022/04/27 05:04:52;;;;;;;11.22;7.00;;;;;;;10.04;76.84;99127.02;1714935;84;21092;-83
2022/04/27 05:07:36;;;;;;;12.98;7.45;;;;;;;10.11;76.12;99122.11;1711186;84;21577;-83
2022/04/27 05:10:17;;;;;;;12.63;6.90;;;;;;;10.15;76.93;99121.15;1719130;83;21012;-84
2022/04/27 05:12:48;;;;;;;12.98;6.80;;;;;;;10.21;77.04;99123.21;1722636;83;21114;-84
2022/04/27 05:15:34;;;;;;;13.13;6.35;;;;;;;10.27;75.91;99129.11;1723905;83;21003;-85
2022/04/27 05:18:03;;;;;;;11.93;6.20;;;;;;;10.29;75.48;99137.72;1717881;83;21072;-84
2022/04/27 05:20:47;;;;;;;23.30;6.35;;;;;;;10.30;75.54;99138.59;1686539;81;20996;-87
2022/04/27 05:23:18;;;;;;;15.10;6.47;;;;;;;10.35;75.13;99146.70;1693810;82;21030;-85
2022/04/27 05:25:59;;;;;;;12.33;6.50;;;;;;;10.39;74.89;99136.25;1697926;82;21103;-87
2022/04/27 05:34:16;;;;;;;13.32;6.55;;;;;;;10.78;75.52;99138.75;1686488;85;21115;-84
2022/04/27 05:36:45;;;;;;;23.65;8.60;;;;;;;10.87;74.84;99141.97;1686684;85;21061;-83
2022/04/27 05:39:22;;;;;;;32.25;7.65;;;;;;;10.98;74.19;99144.74;1684607;83;21044;-83
2022/04/27 05:41:53;;;;;;;13.68;5.65;;;;;;;11.12;74.32;99138.30;1674409;85;21066;-82
2022/04/27 05:44:27;;;;;;;8.40;4.80;;;;;;;11.21;74.30;99146.30;1703081;84;21100;-83
2022/04/27 05:47:12;;;;;;;11.78;5.22;;;;;;;11.20;74.14;99126.39;1683382;82;21815;-84
2022/04/27 05:49:41;;;;;;;11.48;5.40;;;;;;;11.31;74.36;99149.05;1682094;83;21143;-84
2022/04/27 05:52:27;;;;;;;12.63;5.95;;;;;;;11.35;74.07;99155.87;1646999;85;21059;-87
2022/04/27 05:54:56;;;;;;;11.43;5.62;;;;;;;11.38;74.02;99157.99;1614641;85;21057;-84
2022/04/27 05:57:27;;;;;;;11.38;5.25;;;;;;;11.44;73.83;99151.31;1601540;85;21083;-83
2022/04/27 06:00:02;;;;;;;10.05;5.60;;;;;;;11.48;73.54;99143.39;1595142;86;21054;-84
2022/04/27 06:02:46;;;;;;;15.83;6.83;;;;;;;11.48;73.54;99142.52;1648951;83;21006;-85
2022/04/27 06:05:14;;;;;;;9.93;5.10;;;;;;;11.54;73.65;99142.38;1645130;85;21119;-83
2022/04/27 06:07:42;;;;;;;9.53;4.72;;;;;;;11.61;73.90;99147.80;1664946;81;21086;-86
2022/04/27 06:10:11;;;;;;;10.85;5.33;;;;;;;11.68;73.52;99150.64;1737687;80;21758;-79
2022/04/27 06:12:47;;;;;;;13.25;5.58;;;;;;;11.75;73.15;99157.36;1716277;80;21764;-83
2022/04/27 06:15:33;;;;;;;8.45;4.90;;;;;;;11.89;72.81;99156.14;1714598;82;21104;-85
2022/04/27 06:18:01;;;;;;;16.67;5.87;;;;;;;12.04;72.47;99170.48;1714514;84;21068;-86
2022/04/27 06:22:21;;;;;;;9.18;4.35;;;;;;;12.33;72.76;99170.45;1802684;79;22915;-90
2022/04/27 06:24:48;;;;;;;7.87;4.20;;;;;;;12.37;71.72;99165.97;1439289;80;10000410;-83
2022/04/27 06:27:35;;;;;;;9.78;4.67;;;;;;;12.50;71.88;99159.94;1690102;83;21099;-82
2022/04/27 06:30:02;;;;;;;10.43;5.37;;;;;;;12.66;71.69;99160.30;1670459;84;21029;-82
2022/04/27 06:35:37;;;;;;;14.71;5.52;;;;;;;12.85;70.43;99157.92;1561219;84;10000142;-82
2022/04/27 06:38:07;;;;;;;9.18;4.75;;;;;;;13.03;70.24;99160.36;1536902;83;10000551;-90
2022/04/27 06:40:34;;;;;;;9.63;4.70;;;;;;;13.17;69.63;99165.98;1646428;81;21150;-84
2022/04/27 06:43:01;;;;;;;16.20;5.30;;;;;;;13.32;69.05;99162.00;1414209;85;9999991;-86
2022/04/27 06:45:46;;;;;;;9.33;4.85;;;;;;;13.46;68.88;99166.28;1408802;84;10000528;-86
2022/04/27 06:48:32;;;;;;;13.38;4.90;;;;;;;13.59;68.05;99165.40;1670600;86;21006;-86
2022/04/27 06:51:18;;;;;;;14.60;4.78;;;;;;;13.73;67.06;99165.73;1675804;86;21085;-85
2022/04/27 06:54:05;;;;;;;9.03;4.62;;;;;;;13.88;66.92;99155.63;1671984;84;21101;-86
2022/04/27 06:56:49;;;;;;;10.68;4.22;;;;;;;13.99;65.93;99150.85;1694948;83;21160;-83
2022/04/27 06:59:21;;;;;;;11.33;4.75;;;;;;;14.12;66.17;99149.91;1699714;83;21002;-84
2022/04/27 07:01:50;;;;;;;13.68;5.12;;;;;;;14.31;66.22;99157.44;1706696;82;20998;-83
2022/04/27 07:04:31;;;;;;;12.82;4.62;;;;;;;14.48;66.09;99146.32;1692384;83;21030;-86
2022/04/27 07:06:58;;;;;;;7.53;5.05;;;;;;;14.66;65.13;99157.84;1717027;81;21089;-85
2022/04/27 07:09:25;;;;;;;12.18;5.92;;;;;;;14.88;63.91;99155.62;1703669;83;21032;-85
2022/04/27 07:11:52;;;;;;;12.30;5.90;;;;;;;15.04;63.32;99157.13;1704117;83;21036;-85
2022/04/27 07:14:20;;;;;;;8.05;5.25;;;;;;;15.20;64.18;99154.70;1704261;83;21061;-86
2022/04/27 07:16:47;;;;;;;8.80;4.80;;;;;;;15.41;62.46;99159.02;1704305;84;21010;-86
2022/04/27 07:19:13;;;;;;;8.95;5.22;;;;;;;15.51;62.50;99155.54;1704426;83;20980;-86
2022/04/27 07:21:41;;;;;;;11.83;4.37;;;;;;;15.73;60.54;99155.92;1703560;83;21130;-86
2022/04/27 07:24:07;;;;;;;11.05;4.42;;;;;;;15.91;61.30;99155.08;1704255;84;21003;-86
2022/04/27 07:26:35;;;;;;;9.18;4.12;;;;;;;16.12;60.47;99157.18;1704326;84;20998;-85
2022/04/27 07:29:01;;;;;;;8.25;4.80;;;;;;;16.37;60.87;99161.26;1703202;83;21057;-86
2022/04/27 07:31:28;;;;;;;9.33;3.67;;;;;;;16.56;57.58;99159.92;1686839;85;21066;-86
2022/04/27 07:33:55;;;;;;;7.62;4.12;;;;;;;16.77;57.65;99163.25;1686254;85;21030;-86
2022/04/27 07:36:21;;;;;;;7.78;3.90;;;;;;;16.95;59.34;99163.70;1640460;88;21079;-86
2022/04/27 07:38:48;;;;;;;13.90;4.12;;;;;;;17.13;57.88;99164.55;1651719;85;21041;-86
2022/04/27 07:41:14;;;;;;;9.25;3.70;;;;;;;17.37;57.19;99165.06;1666818;85;21023;-86
2022/04/27 07:43:42;;;;;;;11.65;4.17;;;;;;;17.61;57.88;99163.41;1665784;85;21036;-86
2022/04/27 07:46:09;;;;;;;7.53;4.83;;;;;;;17.80;57.00;99160.63;1666420;86;21036;-87
2022/04/27 07:48:36;;;;;;;16.15;8.28;;;;;;;17.97;55.70;99157.13;1667395;86;21069;-87
2022/04/27 07:51:05;;;;;;;9.28;4.22;;;;;;;18.12;54.44;99158.05;1665639;85;20991;-87
2022/04/27 07:53:32;;;;;;;10.35;3.62;;;;;;;18.30;55.93;99166.23;1659643;83;21022;-86
2022/04/27 07:55:59;;;;;;;7.83;4.30;;;;;;;18.28;55.21;99155.82;1650415;85;21002;-86
2022/04/27 07:58:25;;;;;;;7.83;4.00;;;;;;;18.30;53.63;99164.92;1708980;81;20990;-87
2022/04/27 08:00:52;;;;;;;7.70;4.10;;;;;;;18.28;53.97;99160.21;1709096;82;21070;-86
2022/04/27 08:03:19;;;;;;;7.17;4.20;;;;;;;18.21;51.60;99153.14;1709174;83;21030;-85
2022/04/27 08:05:45;;;;;;;9.43;3.90;;;;;;;18.32;52.39;99170.95;1698329;84;20982;-85
2022/04/27 08:08:12;;;;;;;8.10;3.90;;;;;;;18.32;52.79;99176.69;1698324;83;21049;-84
2022/04/27 08:10:39;;;;;;;6.37;3.92;;;;;;;18.24;52.20;99179.30;1681903;82;21041;-86
2022/04/27 08:13:05;;;;;;;6.92;4.10;;;;;;;18.11;52.34;99185.31;1708560;84;21022;-85
2022/04/27 08:15:32;;;;;;;5.95;3.67;;;;;;;18.07;52.43;99175.42;1707986;83;20979;-86
2022/04/27 08:18:03;;;;;;;12.18;4.30;;;;;;;18.03;52.21;99178.67;1671609;86;21533;-85
2022/04/27 08:23:21;;;;;;;10.45;3.87;;;;;;;17.99;51.88;99182.41;1708107;83;20974;-86
2022/04/27 08:25:49;;;;;;;11.03;5.87;;;;;;;17.98;52.11;99184.64;1708649;82;21286;-86
2022/04/27 08:28:17;;;;;;;13.50;6.12;;;;;;;17.95;52.00;99186.61;1695627;83;21025;-85
2022/04/27 08:30:46;;;;;;;21.87;10.08;;;;;;;17.97;52.94;99188.22;1708966;82;21104;-84
2022/04/27 08:33:14;;;;;;;7.22;4.40;;;;;;;17.96;52.84;99186.50;1708579;83;21033;-85
2022/04/27 08:35:42;;;;;;;8.15;4.05;;;;;;;17.96;52.64;99181.72;1708565;83;21013;-85
2022/04/27 08:38:09;;;;;;;10.72;4.08;;;;;;;17.91;52.26;99190.34;1708512;84;20974;-85
2022/04/27 08:40:40;;;;;;;7.80;4.15;;;;;;;17.77;51.91;99187.09;1708464;84;21049;-86
2022/04/27 08:43:09;;;;;;;9.00;3.40;;;;;;;17.60;52.66;99190.60;1696591;82;21085;-86
2022/04/27 08:45:38;;;;;;;7.25;4.00;;;;;;;17.46;52.70;99191.32;1690860;84;21034;-85
2022/04/27 08:48:05;;;;;;;8.65;4.12;;;;;;;17.28;52.14;99185.23;1690398;85;21027;-86
2022/04/27 08:50:32;;;;;;;8.98;5.05;;;;;;;17.21;52.64;99184.70;1689382;85;21037;-86
2022/04/27 08:53:00;;;;;;;8.40;4.70;;;;;;;17.15;53.02;99187.66;1691329;84;21050;-85
2022/04/27 08:55:27;;;;;;;10.98;4.72;;;;;;;17.13;53.37;99186.00;1676668;84;21050;-86
2022/04/27 08:58:07;;;;;;;13.28;4.17;;;;;;;17.15;53.41;99180.20;1674665;86;21069;-85
2022/04/27 09:00:35;;;;;;;10.38;3.70;;;;;;;17.13;53.30;99175.06;1686164;84;21115;-86
2022/04/27 09:03:29;;;;;;;6.87;3.58;;;;;;;17.16;53.35;99174.05;1691407;84;21041;-86
2022/04/27 09:06:00;;;;;;;9.15;4.05;;;;;;;17.14;52.59;99178.05;1702887;84;21082;-86
2022/04/27 09:08:49;;;;;;;9.63;3.83;;;;;;;17.13;52.46;99177.69;1702883;84;21018;-86
2022/04/27 09:11:25;;;;;;;9.83;4.10;;;;;;;17.09;52.15;99177.45;1703077;84;21010;-86
2022/04/27 09:14:01;;;;;;;8.40;4.40;;;;;;;17.01;52.10;99177.84;1716702;84;20994;-86
2022/04/27 09:22:13;;;;;;;10.55;4.12;;;;;;;16.99;52.26;99174.88;1691035;84;21038;-86
2022/04/27 09:24:55;;;;;;;12.68;4.80;;;;;;;16.96;52.52;99177.20;1691136;84;21026;-86
2022/04/27 09:27:26;;;;;;;10.53;4.30;;;;;;;17.01;52.58;99175.66;1666543;86;21025;-86
2022/04/27 09:30:02;;;;;;;10.63;4.70;;;;;;;17.10;52.75;99176.52;1673364;85;21052;-86
2022/04/27 09:32:30;;;;;;;12.40;4.72;;;;;;;17.21;52.62;99172.02;1663906;86;21046;-86
2022/04/27 09:35:02;;;;;;;13.83;4.47;;;;;;;17.35;52.80;99171.30;1685507;84;21006;-86
2022/04/27 09:37:38;;;;;;;11.15;4.20;;;;;;;17.55;52.38;99178.16;1689956;84;21058;-86
2022/04/27 09:40:11;;;;;;;8.68;4.05;;;;;;;17.78;52.15;99181.73;1689156;85;21019;-86
2022/04/27 09:42:43;;;;;;;6.62;3.90;;;;;;;17.82;51.25;99183.73;1690109;84;21057;-86
2022/04/27 09:45:24;;;;;;;8.08;4.17;;;;;;;17.88;50.50;99193.48;1698235;84;21037;-86
2022/04/27 09:48:08;;;;;;;7.70;4.10;;;;;;;17.93;51.13;99191.95;1686715;85;21026;-85
2022/04/27 09:50:55;;;;;;;10.43;4.72;;;;;;;17.85;50.46;99198.09;1693182;84;20998;-86
2022/04/27 09:53:22;;;;;;;8.38;4.30;;;;;;;17.74;51.01;99205.18;1722958;82;21007;-86
2022/04/27 09:55:52;;;;;;;9.18;4.90;;;;;;;17.71;51.50;99210.62;1721470;82;21054;-87
2022/04/27 09:58:20;;;;;;;8.28;4.33;;;;;;;17.61;51.96;99212.88;1667521;83;21032;-86
2022/04/27 10:00:52;;;;;;;8.73;4.78;;;;;;;17.47;52.96;99210.96;1696214;83;21026;-85
2022/04/27 10:03:19;;;;;;;10.38;4.67;;;;;;;17.26;53.89;99215.52;1691897;84;21041;-86
2022/04/27 10:05:47;;;;;;;10.20;4.80;;;;;;;17.13;55.11;99211.84;1694671;83;21116;-86
2022/04/27 10:08:15;;;;;;;9.13;4.42;;;;;;;16.97;55.70;99207.81;1663117;83;21070;-86
2022/04/27 10:10:47;;;;;;;8.33;4.67;;;;;;;16.83;56.48;99213.73;1657638;85;21035;-87
2022/04/27 10:13:15;;;;;;;7.92;4.97;;;;;;;16.63;58.01;99217.73;1684040;83;21142;-86
2022/04/27 10:15:45;;;;;;;11.60;5.08;;;;;;;16.41;58.59;99213.53;1706325;83;21029;-87
2022/04/27 10:18:17;;;;;;;8.65;4.28;;;;;;;16.25;59.76;99208.59;1703213;83;21097;-87
2022/04/27 10:20:48;;;;;;;11.30;4.87;;;;;;;16.14;60.26;99217.44;1703161;84;21021;-87
2022/04/27 10:23:33;;;;;;;10.88;5.45;;;;;;;16.04;62.86;99217.84;1703421;84;21168;-87
2022/04/27 10:26:17;;;;;;;12.73;5.17;;;;;;;15.98;63.92;99212.88;1703356;84;21001;-88
2022/04/27 10:28:56;;;;;;;11.00;5.00;;;;;;;15.93;61.95;99208.77;1684558;84;21125;-86
2022/04/27 10:31:49;;;;;;;11.08;5.53;;;;;;;15.83;63.15;99211.79;1703349;84;21001;-87
2022/04/27 10:34:22;;;;;;;13.98;6.42;;;;;;;15.81;64.43;99212.78;1697800;84;21151;-92
2022/04/27 10:36:50;;;;;;;;;;;;;;;15.88;65.75;99211.13;1696825;83;21097;-92
2022/04/27 10:39:20;;;;;;;14.40;5.78;;;;;;;15.82;67.55;99211.88;1690960;82;20121;-86
2022/04/27 10:42:07;;;;;;;9.63;4.17;;;;;;;15.81;67.63;99211.47;1662277;85;21162;-91
2022/04/27 10:45:03;;;;;;;9.43;4.75;;;;;;;15.73;67.98;99218.83;1652094;84;21120;-89
2022/04/27 10:47:37;;;;;;;8.00;4.12;;;;;;;15.67;67.08;99212.05;1635883;84;22638;-90
2022/04/27 10:50:26;;;;;;;7.28;3.45;;;;;;;15.64;66.51;99205.19;1692106;83;21106;-90
2022/04/27 10:52:55;;;;;;;6.03;3.98;;;;;;;15.65;68.01;99206.88;1690887;80;21079;-90
2022/04/27 10:55:54;;;;;;;7.22;3.83;;;;;;;15.48;68.49;99212.86;1643434;84;21043;-88
2022/04/27 10:58:34;;;;;;;7.47;3.60;;;;;;;15.48;68.00;99198.92;1610263;84;21167;-89
2022/04/27 11:01:18;;;;;;;6.70;3.00;;;;;;;15.54;68.47;99193.41;1690326;84;21102;-93
2022/04/27 11:03:43;;;;;;;4.70;2.65;;;;;;;15.53;68.56;99195.63;1701565;82;21066;-88
2022/04/27 11:06:13;;;;;;;5.20;2.87;;;;;;;15.56;71.47;99168.43;1692384;82;21073;-93
2022/04/27 11:09:22;;;;;;;7.05;3.08;;;;;;;15.69;70.90;99166.97;1720742;83;21062;31
2022/04/27 11:11:56;;;;;;;6.25;3.50;;;;;;;15.92;70.14;99160.73;1536110;92;21088;-90
2022/04/27 11:14:30;;;;;;;4.20;2.90;;;;;;;16.13;71.50;99144.91;1542236;88;21146;-86
2022/04/27 11:16:57;;;;;;;5.70;3.65;;;;;;;16.29;69.86;99144.12;1585183;90;21016;-86
2022/04/27 11:19:39;;;;;;;8.98;3.22;;;;;;;16.55;70.32;99135.43;1584596;90;21091;-86
2022/04/27 11:22:14;;;;;;;11.22;4.33;;;;;;;16.76;69.16;99126.13;1584512;91;21075;-86
2022/04/27 11:24:42;;;;;;;9.98;4.40;;;;;;;17.11;68.27;99128.32;1584643;90;21141;-86
2022/04/27 11:27:09;;;;;;;7.55;3.83;;;;;;;17.26;68.79;99126.19;1584530;90;21097;-85
2022/04/27 11:29:38;;;;;;;6.60;3.35;;;;;;;17.50;67.71;99125.84;1584517;88;21043;-87
2022/04/27 11:32:07;;;;;;;7.22;3.75;;;;;;;17.67;66.53;99118.38;1574142;91;21039;-85
2022/04/27 11:34:34;;;;;;;6.90;3.40;;;;;;;17.92;66.10;99119.70;1584700;91;21285;-86
2022/04/27 11:37:16;;;;;;;8.18;3.40;;;;;;;18.07;65.62;99122.33;1609726;89;21058;-86
2022/04/27 11:39:44;;;;;;;6.85;3.98;;;;;;;18.20;65.37;99117.69;1621761;88;21065;-85
2022/04/27 11:42:12;;;;;;;10.38;4.45;;;;;;;18.25;64.35;99114.34;1596055;89;21119;-86
2022/04/27 11:44:43;;;;;;;5.25;3.42;;;;;;;18.54;64.38;99108.72;1601617;89;21060;-86
2022/04/27 11:47:31;;;;;;;6.12;2.62;;;;;;;18.77;63.66;99110.03;1576612;89;21059;-85
2022/04/27 11:50:00;;;;;;;7.00;2.75;;;;;;;19.07;63.19;99099.97;1617517;89;21062;-86
2022/04/27 11:52:27;;;;;;;6.33;2.40;;;;;;;19.39;62.57;99091.41;1617532;89;21106;-85
2022/04/27 11:55:02;;;;;;;7.40;2.37;;;;;;;19.59;59.68;99094.13;1617346;89;21086;-85
2022/04/27 11:57:29;;;;;;;9.95;2.67;;;;;;;19.81;59.54;99088.39;1616447;89;21063;-85
2022/04/27 11:59:57;;;;;;;9.35;2.70;;;;;;;20.04;58.94;99094.85;1617599;89;21071;-86
2022/04/27 12:02:26;;;;;;;15.55;3.45;;;;;;;20.23;59.01;99091.02;1606646;89;21102;-85
2022/04/27 12:04:59;;;;;;;5.65;2.75;;;;;;;20.41;57.86;99095.56;1617243;88;21058;-86
2022/04/27 12:07:26;;;;;;;5.87;3.05;;;;;;;20.73;57.76;99089.52;1605019;88;21063;-86
2022/04/27 12:10:06;;;;;;;7.10;2.98;;;;;;;21.08;55.83;99086.27;1597013;87;21534;-85
2022/04/27 12:12:33;;;;;;;12.30;2.52;;;;;;;21.42;55.31;99060.12;1595731;90;21112;-85
2022/04/27 12:15:07;;;;;;;6.30;2.10;;;;;;;21.99;50.35;99079.92;1584480;90;21090;-85